sensor_id;sensor_type;location;lat;lon;timestamp;pressure;altitude;pressure_sealevel;temperature;humidity
57948;BME280;43754;56.992;24.292;2023-07-09T00:01:13;101882.91;;;14.83;100.00
57948;BME280;43754;56.992;24.292;2023-07-09T00:03:47;101884.53;;;14.92;100.00
57948;BME280;43754;56.992;24.292;2023-07-09T00:06:23;101882.13;;;14.97;100.00
57948;BME280;43754;56.992;24.292;2023-07-09T00:08:55;101876.84;;;15.03;100.00
57948;BME280;43754;56.992;24.292;2023-07-09T00:11:27;101879.53;;;15.03;100.00
57948;BME280;43754;56.992;24.292;2023-07-09T00:13:59;101876.00;;;15.03;100.00
57948;BME280;43754;56.992;24.292;2023-07-09T00:16:31;101879.75;;;15.02;100.00
57948;BME280;43754;56.992;24.292;2023-07-09T00:19:08;101874.34;;;15.02;100.00
57948;BME280;43754;56.992;24.292;2023-07-09T00:21:43;101865.56;;;15.00;100.00
57948;BME280;43754;56.992;24.292;2023-07-09T00:24:16;101881.13;;;14.98;100.00
57948;BME280;43754;56.992;24.292;2023-07-09T00:26:49;101868.81;;;14.95;100.00
57948;BME280;43754;56.992;24.292;2023-07-09T00:29:22;101872.56;;;14.94;100.00
57948;BME280;43754;56.992;24.292;2023-07-09T00:31:54;101869.53;;;14.89;100.00
57948;BME280;43754;56.992;24.292;2023-07-09T00:34:28;101875.25;;;14.94;100.00
57948;BME280;43754;56.992;24.292;2023-07-09T00:37:00;101863.25;;;14.97;100.00
57948;BME280;43754;56.992;24.292;2023-07-09T00:39:33;101862.88;;;15.00;100.00
57948;BME280;43754;56.992;24.292;2023-07-09T00:42:07;101868.09;;;15.01;100.00
57948;BME280;43754;56.992;24.292;2023-07-09T00:44:44;101860.63;;;15.03;100.00
57948;BME280;43754;56.992;24.292;2023-07-09T00:47:22;101863.63;;;15.08;100.00
57948;BME280;43754;56.992;24.292;2023-07-09T00:50:09;101863.47;;;15.10;100.00
57948;BME280;43754;56.992;24.292;2023-07-09T00:52:48;101860.38;;;15.13;100.00
57948;BME280;43754;56.992;24.292;2023-07-09T00:55:23;101859.38;;;15.14;100.00
57948;BME280;43754;56.992;24.292;2023-07-09T00:58:00;101867.09;;;15.17;100.00
57948;BME280;43754;56.992;24.292;2023-07-09T01:00:36;101859.38;;;15.14;100.00
57948;BME280;43754;56.992;24.292;2023-07-09T01:03:32;101856.69;;;15.14;100.00
57948;BME280;43754;56.992;24.292;2023-07-09T01:06:08;101869.81;;;15.17;100.00
57948;BME280;43754;56.992;24.292;2023-07-09T01:08:41;101870.47;;;15.19;100.00
57948;BME280;43754;56.992;24.292;2023-07-09T01:11:15;101874.50;;;15.23;100.00
57948;BME280;43754;56.992;24.292;2023-07-09T01:13:48;101873.09;;;15.27;100.00
57948;BME280;43754;56.992;24.292;2023-07-09T01:16:22;101870.66;;;15.32;100.00
57948;BME280;43754;56.992;24.292;2023-07-09T01:18:56;101874.81;;;15.43;100.00
57948;BME280;43754;56.992;24.292;2023-07-09T01:21:29;101873.91;;;15.50;100.00
57948;BME280;43754;56.992;24.292;2023-07-09T01:24:11;101868.13;;;15.53;100.00
57948;BME280;43754;56.992;24.292;2023-07-09T01:26:45;101873.81;;;15.58;100.00
57948;BME280;43754;56.992;24.292;2023-07-09T01:29:18;101867.22;;;15.61;100.00
57948;BME280;43754;56.992;24.292;2023-07-09T01:31:50;101871.03;;;15.67;100.00
57948;BME280;43754;56.992;24.292;2023-07-09T01:34:23;101869.63;;;15.71;100.00
57948;BME280;43754;56.992;24.292;2023-07-09T01:36:58;101872.16;;;15.72;100.00
57948;BME280;43754;56.992;24.292;2023-07-09T01:39:30;101868.06;;;15.76;100.00
57948;BME280;43754;56.992;24.292;2023-07-09T01:42:03;101867.69;;;15.79;100.00
57948;BME280;43754;56.992;24.292;2023-07-09T01:44:37;101860.69;;;15.85;100.00
57948;BME280;43754;56.992;24.292;2023-07-09T01:47:10;101859.69;;;15.86;100.00
57948;BME280;43754;56.992;24.292;2023-07-09T01:49:42;101865.72;;;15.88;100.00
57948;BME280;43754;56.992;24.292;2023-07-09T01:52:20;101860.13;;;15.89;100.00
57948;BME280;43754;56.992;24.292;2023-07-09T01:54:54;101857.22;;;15.91;100.00
57948;BME280;43754;56.992;24.292;2023-07-09T01:57:28;101858.63;;;15.87;100.00
57948;BME280;43754;56.992;24.292;2023-07-09T02:00:08;101848.03;;;15.85;100.00
57948;BME280;43754;56.992;24.292;2023-07-09T02:02:45;101854.63;;;15.83;100.00
57948;BME280;43754;56.992;24.292;2023-07-09T02:05:19;101854.44;;;15.84;100.00
57948;BME280;43754;56.992;24.292;2023-07-09T02:07:53;101861.53;;;15.85;100.00
57948;BME280;43754;56.992;24.292;2023-07-09T02:10:26;101859.28;;;15.89;100.00
57948;BME280;43754;56.992;24.292;2023-07-09T02:12:58;101864.16;;;15.93;100.00
57948;BME280;43754;56.992;24.292;2023-07-09T02:15:31;101861.91;;;15.97;100.00
57948;BME280;43754;56.992;24.292;2023-07-09T02:18:03;101866.75;;;16.01;100.00
57948;BME280;43754;56.992;24.292;2023-07-09T02:20:35;101867.88;;;16.07;100.00
57948;BME280;43754;56.992;24.292;2023-07-09T02:23:09;101857.69;;;16.09;100.00
57948;BME280;43754;56.992;24.292;2023-07-09T02:25:40;101861.22;;;16.09;100.00
57948;BME280;43754;56.992;24.292;2023-07-09T02:28:13;101867.28;;;16.11;100.00
57948;BME280;43754;56.992;24.292;2023-07-09T02:30:45;101868.50;;;16.09;100.00
57948;BME280;43754;56.992;24.292;2023-07-09T02:33:17;101862.25;;;16.08;100.00
57948;BME280;43754;56.992;24.292;2023-07-09T02:35:52;101863.09;;;16.09;100.00
57948;BME280;43754;56.992;24.292;2023-07-09T02:38:26;101868.13;;;16.12;100.00
57948;BME280;43754;56.992;24.292;2023-07-09T02:40:58;101870.19;;;16.10;100.00
57948;BME280;43754;56.992;24.292;2023-07-09T02:43:31;101871.88;;;16.11;100.00
57948;BME280;43754;56.992;24.292;2023-07-09T02:46:03;101880.44;;;16.15;100.00
57948;BME280;43754;56.992;24.292;2023-07-09T02:48:35;101876.13;;;16.20;100.00
57948;BME280;43754;56.992;24.292;2023-07-09T02:51:07;101878.72;;;16.28;100.00
57948;BME280;43754;56.992;24.292;2023-07-09T02:53:41;101879.00;;;16.33;100.00
57948;BME280;43754;56.992;24.292;2023-07-09T02:56:13;101884.69;;;16.38;100.00
57948;BME280;43754;56.992;24.292;2023-07-09T02:58:45;101874.19;;;16.50;100.00
57948;BME280;43754;56.992;24.292;2023-07-09T03:01:17;101873.63;;;16.54;100.00
57948;BME280;43754;56.992;24.292;2023-07-09T03:03:49;101883.44;;;16.55;100.00
57948;BME280;43754;56.992;24.292;2023-07-09T03:06:22;101872.06;;;16.60;100.00
57948;BME280;43754;56.992;24.292;2023-07-09T03:08:56;101874.66;;;16.68;100.00
57948;BME280;43754;56.992;24.292;2023-07-09T03:11:29;101870.13;;;16.75;100.00
57948;BME280;43754;56.992;24.292;2023-07-09T03:14:02;101869.38;;;16.81;100.00
57948;BME280;43754;56.992;24.292;2023-07-09T03:16:34;101876.91;;;16.86;100.00
57948;BME280;43754;56.992;24.292;2023-07-09T03:19:07;101869.94;;;16.77;100.00
57948;BME280;43754;56.992;24.292;2023-07-09T03:21:39;101866.22;;;16.78;100.00
57948;BME280;43754;56.992;24.292;2023-07-09T03:24:12;101879.19;;;16.82;100.00
57948;BME280;43754;56.992;24.292;2023-07-09T03:26:47;101879.38;;;16.81;100.00
57948;BME280;43754;56.992;24.292;2023-07-09T03:29:19;101873.81;;;16.89;100.00
57948;BME280;43754;56.992;24.292;2023-07-09T03:31:51;101869.94;;;16.98;100.00
57948;BME280;43754;56.992;24.292;2023-07-09T03:34:23;101875.22;;;17.06;100.00
57948;BME280;43754;56.992;24.292;2023-07-09T03:36:55;101868.88;;;17.20;100.00
57948;BME280;43754;56.992;24.292;2023-07-09T03:39:29;101876.09;;;17.34;100.00
57948;BME280;43754;56.992;24.292;2023-07-09T03:42:01;101875.75;;;17.44;100.00
57948;BME280;43754;56.992;24.292;2023-07-09T03:44:33;101881.75;;;17.61;100.00
57948;BME280;43754;56.992;24.292;2023-07-09T03:47:05;101879.75;;;18.64;100.00
57948;BME280;43754;56.992;24.292;2023-07-09T03:49:37;101881.47;;;19.24;100.00
57948;BME280;43754;56.992;24.292;2023-07-09T03:52:09;101875.38;;;19.82;100.00
57948;BME280;43754;56.992;24.292;2023-07-09T03:54:43;101882.31;;;19.71;100.00
57948;BME280;43754;56.992;24.292;2023-07-09T03:57:15;101884.41;;;19.29;100.00
57948;BME280;43754;56.992;24.292;2023-07-09T03:59:47;101873.13;;;19.39;100.00
57948;BME280;43754;56.992;24.292;2023-07-09T04:02:19;101885.59;;;19.99;100.00
57948;BME280;43754;56.992;24.292;2023-07-09T04:04:51;101887.84;;;20.15;100.00
57948;BME280;43754;56.992;24.292;2023-07-09T04:07:23;101883.34;;;19.77;100.00
57948;BME280;43754;56.992;24.292;2023-07-09T04:09:57;101884.25;;;20.28;100.00
57948;BME280;43754;56.992;24.292;2023-07-09T04:12:29;101886.41;;;20.06;100.00
57948;BME280;43754;56.992;24.292;2023-07-09T04:15:01;101891.72;;;19.82;100.00
57948;BME280;43754;56.992;24.292;2023-07-09T04:17:33;101881.06;;;19.60;100.00
57948;BME280;43754;56.992;24.292;2023-07-09T04:20:07;101884.63;;;19.41;100.00
57948;BME280;43754;56.992;24.292;2023-07-09T04:22:39;101885.47;;;19.28;100.00
57948;BME280;43754;56.992;24.292;2023-07-09T04:25:13;101882.31;;;19.18;100.00
57948;BME280;43754;56.992;24.292;2023-07-09T04:27:45;101880.22;;;18.94;100.00
57948;BME280;43754;56.992;24.292;2023-07-09T04:30:17;101879.59;;;19.05;100.00
57948;BME280;43754;56.992;24.292;2023-07-09T04:32:49;101877.94;;;18.98;100.00
57948;BME280;43754;56.992;24.292;2023-07-09T04:35:21;101869.78;;;18.98;100.00
57948;BME280;43754;56.992;24.292;2023-07-09T04:37:53;101872.28;;;19.06;100.00
57948;BME280;43754;56.992;24.292;2023-07-09T04:40:27;101870.59;;;19.24;100.00
57948;BME280;43754;56.992;24.292;2023-07-09T04:42:59;101868.78;;;19.45;100.00
57948;BME280;43754;56.992;24.292;2023-07-09T04:45:31;101874.75;;;19.80;100.00
57948;BME280;43754;56.992;24.292;2023-07-09T04:48:04;101874.97;;;19.85;100.00
57948;BME280;43754;56.992;24.292;2023-07-09T04:50:36;101869.91;;;19.95;100.00
57948;BME280;43754;56.992;24.292;2023-07-09T04:53:08;101861.63;;;19.70;100.00
57948;BME280;43754;56.992;24.292;2023-07-09T04:55:42;101864.13;;;19.58;100.00
57948;BME280;43754;56.992;24.292;2023-07-09T04:58:14;101858.47;;;19.66;100.00
57948;BME280;43754;56.992;24.292;2023-07-09T05:00:46;101856.81;;;19.46;100.00
57948;BME280;43754;56.992;24.292;2023-07-09T05:03:18;101863.47;;;19.76;100.00
57948;BME280;43754;56.992;24.292;2023-07-09T05:05:51;101856.88;;;20.10;100.00
57948;BME280;43754;56.992;24.292;2023-07-09T05:08:23;101856.41;;;20.64;100.00
57948;BME280;43754;56.992;24.292;2023-07-09T05:10:57;101859.38;;;21.43;100.00
57948;BME280;43754;56.992;24.292;2023-07-09T05:13:29;101850.44;;;21.97;99.83
57948;BME280;43754;56.992;24.292;2023-07-09T05:16:02;101843.78;;;22.41;96.78
57948;BME280;43754;56.992;24.292;2023-07-09T05:18:34;101849.06;;;22.96;93.91
57948;BME280;43754;56.992;24.292;2023-07-09T05:21:07;101844.34;;;22.91;92.94
57948;BME280;43754;56.992;24.292;2023-07-09T05:23:38;101837.47;;;23.24;91.55
57948;BME280;43754;56.992;24.292;2023-07-09T05:26:12;101842.00;;;23.30;91.02
57948;BME280;43754;56.992;24.292;2023-07-09T05:28:44;101854.81;;;22.95;92.05
57948;BME280;43754;56.992;24.292;2023-07-09T05:31:16;101844.06;;;22.52;92.75
57948;BME280;43754;56.992;24.292;2023-07-09T05:33:48;101848.44;;;21.86;95.86
57948;BME280;43754;56.992;24.292;2023-07-09T05:36:20;101847.22;;;21.64;98.06
57948;BME280;43754;56.992;24.292;2023-07-09T05:38:52;101841.25;;;21.31;99.71
57948;BME280;43754;56.992;24.292;2023-07-09T05:41:26;101848.03;;;21.22;100.00
57948;BME280;43754;56.992;24.292;2023-07-09T05:43:58;101844.66;;;21.69;97.79
57948;BME280;43754;56.992;24.292;2023-07-09T05:46:34;101842.88;;;22.59;93.81
57948;BME280;43754;56.992;24.292;2023-07-09T05:49:08;101844.41;;;22.73;92.05
57948;BME280;43754;56.992;24.292;2023-07-09T05:51:43;101846.13;;;22.38;92.94
57948;BME280;43754;56.992;24.292;2023-07-09T05:54:15;101855.72;;;22.59;92.47
57948;BME280;43754;56.992;24.292;2023-07-09T05:56:48;101847.06;;;22.32;92.28
57948;BME280;43754;56.992;24.292;2023-07-09T05:59:20;101848.28;;;22.18;93.36
57948;BME280;43754;56.992;24.292;2023-07-09T06:01:52;101859.53;;;22.10;93.44
57948;BME280;43754;56.992;24.292;2023-07-09T06:04:25;101851.50;;;21.96;94.05
57948;BME280;43754;56.992;24.292;2023-07-09T06:06:58;101853.44;;;21.89;94.56
57948;BME280;43754;56.992;24.292;2023-07-09T06:09:30;101864.63;;;22.06;94.50
57948;BME280;43754;56.992;24.292;2023-07-09T06:12:05;101850.13;;;22.24;93.76
57948;BME280;43754;56.992;24.292;2023-07-09T06:14:37;101853.75;;;22.18;93.61
57948;BME280;43754;56.992;24.292;2023-07-09T06:17:10;101854.53;;;22.07;93.40
57948;BME280;43754;56.992;24.292;2023-07-09T06:19:42;101851.28;;;21.98;93.58
57948;BME280;43754;56.992;24.292;2023-07-09T06:22:14;101848.75;;;22.15;93.44
57948;BME280;43754;56.992;24.292;2023-07-09T06:24:46;101849.44;;;21.92;93.03
57948;BME280;43754;56.992;24.292;2023-07-09T06:27:19;101849.38;;;22.17;92.26
57948;BME280;43754;56.992;24.292;2023-07-09T06:29:51;101859.88;;;22.50;90.78
57948;BME280;43754;56.992;24.292;2023-07-09T06:32:23;101854.09;;;22.39;90.61
57948;BME280;43754;56.992;24.292;2023-07-09T06:34:55;101850.66;;;22.62;89.91
57948;BME280;43754;56.992;24.292;2023-07-09T06:37:27;101842.16;;;22.70;88.66
57948;BME280;43754;56.992;24.292;2023-07-09T06:39:59;101846.09;;;22.56;89.67
57948;BME280;43754;56.992;24.292;2023-07-09T06:42:33;101844.78;;;22.88;87.24
57948;BME280;43754;56.992;24.292;2023-07-09T06:45:14;101853.03;;;23.00;84.97
57948;BME280;43754;56.992;24.292;2023-07-09T06:47:46;101846.59;;;22.65;84.46
57948;BME280;43754;56.992;24.292;2023-07-09T06:50:21;101844.66;;;22.54;85.63
57948;BME280;43754;56.992;24.292;2023-07-09T06:52:53;101850.53;;;22.39;87.88
57948;BME280;43754;56.992;24.292;2023-07-09T06:55:25;101848.94;;;22.50;87.94
57948;BME280;43754;56.992;24.292;2023-07-09T06:57:59;101850.25;;;22.88;87.55
57948;BME280;43754;56.992;24.292;2023-07-09T07:00:31;101851.63;;;23.21;85.57
57948;BME280;43754;56.992;24.292;2023-07-09T07:03:05;101849.13;;;23.31;83.23
57948;BME280;43754;56.992;24.292;2023-07-09T07:05:42;101848.78;;;23.39;84.92
57948;BME280;43754;56.992;24.292;2023-07-09T07:08:16;101854.81;;;23.99;84.02
57948;BME280;43754;56.992;24.292;2023-07-09T07:10:50;101858.78;;;23.68;78.98
57948;BME280;43754;56.992;24.292;2023-07-09T07:13:29;101852.69;;;23.20;83.29
57948;BME280;43754;56.992;24.292;2023-07-09T07:16:03;101852.34;;;23.39;84.04
57948;BME280;43754;56.992;24.292;2023-07-09T07:18:37;101845.69;;;23.12;84.40
57948;BME280;43754;56.992;24.292;2023-07-09T07:21:09;101858.56;;;22.52;87.22
57948;BME280;43754;56.992;24.292;2023-07-09T07:23:41;101859.59;;;22.69;84.92
57948;BME280;43754;56.992;24.292;2023-07-09T07:26:13;101848.28;;;23.07;85.01
57948;BME280;43754;56.992;24.292;2023-07-09T07:28:47;101855.44;;;23.20;84.13
57948;BME280;43754;56.992;24.292;2023-07-09T07:31:19;101848.56;;;23.41;80.83
57948;BME280;43754;56.992;24.292;2023-07-09T07:33:51;101857.84;;;23.74;83.11
57948;BME280;43754;56.992;24.292;2023-07-09T07:36:23;101844.28;;;23.56;83.06
57948;BME280;43754;56.992;24.292;2023-07-09T07:39:02;101853.50;;;23.09;83.73
57948;BME280;43754;56.992;24.292;2023-07-09T07:41:34;101857.19;;;22.91;83.96
57948;BME280;43754;56.992;24.292;2023-07-09T07:44:08;101855.63;;;22.95;83.49
57948;BME280;43754;56.992;24.292;2023-07-09T07:46:40;101856.41;;;22.72;85.34
57948;BME280;43754;56.992;24.292;2023-07-09T07:49:12;101849.84;;;23.15;84.14
57948;BME280;43754;56.992;24.292;2023-07-09T07:51:45;101852.63;;;23.61;81.33
57948;BME280;43754;56.992;24.292;2023-07-09T07:54:17;101852.16;;;23.53;82.73
57948;BME280;43754;56.992;24.292;2023-07-09T07:56:50;101867.81;;;23.34;82.95
57948;BME280;43754;56.992;24.292;2023-07-09T07:59:23;101867.44;;;23.42;83.44
57948;BME280;43754;56.992;24.292;2023-07-09T08:01:55;101860.47;;;23.69;81.62
57948;BME280;43754;56.992;24.292;2023-07-09T08:04:27;101864.38;;;23.85;80.95
57948;BME280;43754;56.992;24.292;2023-07-09T08:07:00;101865.34;;;23.44;82.35
57948;BME280;43754;56.992;24.292;2023-07-09T08:09:32;101853.84;;;23.01;82.58
57948;BME280;43754;56.992;24.292;2023-07-09T08:12:05;101850.22;;;23.42;81.90
57948;BME280;43754;56.992;24.292;2023-07-09T08:14:47;101860.31;;;23.76;80.53
57948;BME280;43754;56.992;24.292;2023-07-09T08:17:19;101858.84;;;24.08;78.76
57948;BME280;43754;56.992;24.292;2023-07-09T08:19:52;101853.38;;;24.20;77.13
57948;BME280;43754;56.992;24.292;2023-07-09T08:22:25;101855.28;;;24.08;76.19
57948;BME280;43754;56.992;24.292;2023-07-09T08:24:57;101850.72;;;23.62;78.11
57948;BME280;43754;56.992;24.292;2023-07-09T08:27:29;101864.13;;;23.28;78.35
57948;BME280;43754;56.992;24.292;2023-07-09T08:30:03;101861.94;;;22.96;79.32
57948;BME280;43754;56.992;24.292;2023-07-09T08:32:35;101865.25;;;22.98;80.79
57948;BME280;43754;56.992;24.292;2023-07-09T08:35:08;101860.16;;;23.01;80.79
57948;BME280;43754;56.992;24.292;2023-07-09T08:37:45;101862.66;;;23.14;80.92
57948;BME280;43754;56.992;24.292;2023-07-09T08:40:17;101862.38;;;23.57;79.75
57948;BME280;43754;56.992;24.292;2023-07-09T08:42:52;101869.25;;;23.95;78.26
57948;BME280;43754;56.992;24.292;2023-07-09T08:45:40;101869.75;;;24.60;74.65
57948;BME280;43754;56.992;24.292;2023-07-09T08:48:24;101859.22;;;24.68;72.43
57948;BME280;43754;56.992;24.292;2023-07-09T08:51:02;101867.78;;;24.72;73.03
57948;BME280;43754;56.992;24.292;2023-07-09T08:53:42;101859.34;;;24.73;73.71
57948;BME280;43754;56.992;24.292;2023-07-09T08:56:16;101859.00;;;24.70;74.63
57948;BME280;43754;56.992;24.292;2023-07-09T08:58:50;101861.25;;;24.45;74.16
57948;BME280;43754;56.992;24.292;2023-07-09T09:01:28;101856.34;;;24.18;73.52
57948;BME280;43754;56.992;24.292;2023-07-09T09:04:04;101859.66;;;24.09;75.68
57948;BME280;43754;56.992;24.292;2023-07-09T09:06:38;101860.94;;;23.78;75.52
57948;BME280;43754;56.992;24.292;2023-07-09T09:09:22;101859.75;;;23.51;75.92
57948;BME280;43754;56.992;24.292;2023-07-09T09:12:04;101861.19;;;23.65;74.79
57948;BME280;43754;56.992;24.292;2023-07-09T09:14:42;101865.19;;;23.86;74.36
57948;BME280;43754;56.992;24.292;2023-07-09T09:17:19;101861.94;;;24.12;73.19
57948;BME280;43754;56.992;24.292;2023-07-09T09:19:54;101862.31;;;24.15;72.31
57948;BME280;43754;56.992;24.292;2023-07-09T09:22:30;101850.75;;;24.02;74.86
57948;BME280;43754;56.992;24.292;2023-07-09T09:25:15;101857.63;;;24.27;70.80
57948;BME280;43754;56.992;24.292;2023-07-09T09:27:50;101857.56;;;24.67;70.71
57948;BME280;43754;56.992;24.292;2023-07-09T09:30:24;101845.81;;;24.84;68.27
57948;BME280;43754;56.992;24.292;2023-07-09T09:33:00;101845.03;;;24.71;71.49
57948;BME280;43754;56.992;24.292;2023-07-09T09:35:34;101843.16;;;24.44;69.60
57948;BME280;43754;56.992;24.292;2023-07-09T09:38:10;101840.22;;;24.79;69.55
57948;BME280;43754;56.992;24.292;2023-07-09T09:40:43;101856.66;;;24.62;67.29
57948;BME280;43754;56.992;24.292;2023-07-09T09:43:17;101843.81;;;24.51;64.99
57948;BME280;43754;56.992;24.292;2023-07-09T09:45:52;101844.75;;;24.56;65.07
57948;BME280;43754;56.992;24.292;2023-07-09T09:48:30;101850.88;;;24.75;60.42
57948;BME280;43754;56.992;24.292;2023-07-09T09:51:04;101840.16;;;24.45;59.43
57948;BME280;43754;56.992;24.292;2023-07-09T09:53:38;101837.06;;;24.70;60.18
57948;BME280;43754;56.992;24.292;2023-07-09T09:56:14;101827.84;;;24.76;60.21
57948;BME280;43754;56.992;24.292;2023-07-09T09:58:52;101837.78;;;24.94;57.37
57948;BME280;43754;56.992;24.292;2023-07-09T10:01:28;101832.31;;;24.65;57.93
57948;BME280;43754;56.992;24.292;2023-07-09T10:04:03;101836.06;;;24.76;57.85
57948;BME280;43754;56.992;24.292;2023-07-09T10:06:38;101833.47;;;24.69;58.55
57948;BME280;43754;56.992;24.292;2023-07-09T10:09:20;101829.97;;;25.02;58.20
57948;BME280;43754;56.992;24.292;2023-07-09T10:12:03;101833.91;;;24.78;57.44
57948;BME280;43754;56.992;24.292;2023-07-09T10:14:47;101831.75;;;24.35;60.57
57948;BME280;43754;56.992;24.292;2023-07-09T10:17:30;101833.50;;;24.41;58.05
57948;BME280;43754;56.992;24.292;2023-07-09T10:20:25;101835.66;;;24.39;57.77
57948;BME280;43754;56.992;24.292;2023-07-09T10:23:02;101832.28;;;24.49;55.48
57948;BME280;43754;56.992;24.292;2023-07-09T10:25:44;101845.69;;;24.62;52.45
57948;BME280;43754;56.992;24.292;2023-07-09T10:28:38;101839.47;;;24.66;50.90
57948;BME280;43754;56.992;24.292;2023-07-09T10:31:17;101843.38;;;24.70;52.96
57948;BME280;43754;56.992;24.292;2023-07-09T10:33:58;101837.69;;;24.60;51.41
57948;BME280;43754;56.992;24.292;2023-07-09T10:36:48;101836.75;;;24.83;51.26
57948;BME280;43754;56.992;24.292;2023-07-09T10:39:29;101817.66;;;24.88;50.53
57948;BME280;43754;56.992;24.292;2023-07-09T10:42:04;101810.28;;;24.60;52.50
57948;BME280;43754;56.992;24.292;2023-07-09T10:44:43;101837.44;;;24.17;50.64
57948;BME280;43754;56.992;24.292;2023-07-09T10:47:26;101822.91;;;23.93;52.55
57948;BME280;43754;56.992;24.292;2023-07-09T10:50:02;101828.91;;;23.78;51.91
57948;BME280;43754;56.992;24.292;2023-07-09T10:52:39;101831.03;;;23.76;53.59
57948;BME280;43754;56.992;24.292;2023-07-09T10:55:21;101830.56;;;23.68;53.35
57948;BME280;43754;56.992;24.292;2023-07-09T10:57:58;101825.81;;;23.75;55.22
57948;BME280;43754;56.992;24.292;2023-07-09T11:00:35;101821.41;;;24.14;52.70
57948;BME280;43754;56.992;24.292;2023-07-09T11:03:15;101822.06;;;24.44;51.19
57948;BME280;43754;56.992;24.292;2023-07-09T11:05:50;101827.06;;;24.64;50.07
57948;BME280;43754;56.992;24.292;2023-07-09T11:08:31;101825.00;;;24.54;51.34
57948;BME280;43754;56.992;24.292;2023-07-09T11:11:08;101824.56;;;24.46;50.04
57948;BME280;43754;56.992;24.292;2023-07-09T11:13:45;101824.31;;;24.07;52.09
57948;BME280;43754;56.992;24.292;2023-07-09T11:16:28;101825.13;;;24.19;49.74
57948;BME280;43754;56.992;24.292;2023-07-09T11:19:03;101820.28;;;24.38;47.28
57948;BME280;43754;56.992;24.292;2023-07-09T11:21:45;101820.16;;;24.16;47.58
57948;BME280;43754;56.992;24.292;2023-07-09T11:24:31;101828.75;;;23.85;48.82
57948;BME280;43754;56.992;24.292;2023-07-09T11:27:17;101820.56;;;23.85;48.97
57948;BME280;43754;56.992;24.292;2023-07-09T11:29:56;101824.47;;;23.89;48.95
57948;BME280;43754;56.992;24.292;2023-07-09T11:32:29;101818.31;;;23.59;47.08
57948;BME280;43754;56.992;24.292;2023-07-09T11:35:08;101828.66;;;23.10;49.60
57948;BME280;43754;56.992;24.292;2023-07-09T11:37:45;101832.78;;;22.78;50.06
57948;BME280;43754;56.992;24.292;2023-07-09T11:40:20;101827.25;;;23.08;51.03
57948;BME280;43754;56.992;24.292;2023-07-09T11:42:53;101830.50;;;23.63;48.54
57948;BME280;43754;56.992;24.292;2023-07-09T11:45:28;101833.78;;;23.76;48.34
57948;BME280;43754;56.992;24.292;2023-07-09T11:48:20;101830.34;;;23.69;43.82
57948;BME280;43754;56.992;24.292;2023-07-09T11:50:56;101832.84;;;23.71;43.38
57948;BME280;43754;56.992;24.292;2023-07-09T11:53:33;101824.75;;;23.64;43.48
57948;BME280;43754;56.992;24.292;2023-07-09T11:56:08;101827.84;;;23.68;44.11
57948;BME280;43754;56.992;24.292;2023-07-09T11:58:48;101829.75;;;23.79;42.91
57948;BME280;43754;56.992;24.292;2023-07-09T12:01:22;101833.22;;;23.63;45.44
57948;BME280;43754;56.992;24.292;2023-07-09T12:03:56;101829.50;;;23.69;47.15
57948;BME280;43754;56.992;24.292;2023-07-09T12:06:31;101825.19;;;23.96;46.87
57948;BME280;43754;56.992;24.292;2023-07-09T12:09:05;101820.22;;;23.81;45.20
57948;BME280;43754;56.992;24.292;2023-07-09T12:11:43;101821.47;;;24.02;45.76
57948;BME280;43754;56.992;24.292;2023-07-09T12:14:18;101823.59;;;24.12;45.24
57948;BME280;43754;56.992;24.292;2023-07-09T12:16:51;101825.81;;;23.87;44.12
57948;BME280;43754;56.992;24.292;2023-07-09T12:19:29;101810.50;;;23.62;46.03
57948;BME280;43754;56.992;24.292;2023-07-09T12:22:06;101813.72;;;23.48;47.26
57948;BME280;43754;56.992;24.292;2023-07-09T12:24:42;101805.97;;;23.45;46.49
57948;BME280;43754;56.992;24.292;2023-07-09T12:27:23;101803.81;;;23.23;48.12
57948;BME280;43754;56.992;24.292;2023-07-09T12:29:57;101805.28;;;23.49;49.00
57948;BME280;43754;56.992;24.292;2023-07-09T12:32:29;101811.31;;;23.51;49.99
57948;BME280;43754;56.992;24.292;2023-07-09T12:35:01;101810.44;;;23.86;48.71
57948;BME280;43754;56.992;24.292;2023-07-09T12:37:33;101814.66;;;23.53;49.09
57948;BME280;43754;56.992;24.292;2023-07-09T12:40:12;101814.00;;;23.05;49.59
57948;BME280;43754;56.992;24.292;2023-07-09T12:42:47;101798.78;;;22.85;50.69
57948;BME280;43754;56.992;24.292;2023-07-09T12:45:20;101794.41;;;23.31;50.83
57948;BME280;43754;56.992;24.292;2023-07-09T12:47:52;101800.13;;;23.41;51.35
57948;BME280;43754;56.992;24.292;2023-07-09T12:50:30;101794.91;;;23.51;51.48
57948;BME280;43754;56.992;24.292;2023-07-09T12:53:12;101791.16;;;23.80;51.99
57948;BME280;43754;56.992;24.292;2023-07-09T12:55:46;101799.38;;;23.80;49.79
57948;BME280;43754;56.992;24.292;2023-07-09T12:58:24;101801.22;;;23.52;51.01
57948;BME280;43754;56.992;24.292;2023-07-09T13:01:00;101808.56;;;23.74;51.55
57948;BME280;43754;56.992;24.292;2023-07-09T13:03:36;101799.78;;;23.61;50.12
57948;BME280;43754;56.992;24.292;2023-07-09T13:06:26;101799.63;;;23.67;50.90
57948;BME280;43754;56.992;24.292;2023-07-09T13:08:59;101797.06;;;23.49;50.07
57948;BME280;43754;56.992;24.292;2023-07-09T13:11:33;101792.88;;;23.23;50.94
57948;BME280;43754;56.992;24.292;2023-07-09T13:14:19;101792.88;;;23.23;51.28